sensor_id;sensor_type;location;lat;lon;timestamp;temperature;humidity
7686;DHT22;3885;51.474;-2.576;2022-11-20T00:00:17;7.30;99.90
7686;DHT22;3885;51.474;-2.576;2022-11-20T00:02:44;7.30;99.90
7686;DHT22;3885;51.474;-2.576;2022-11-20T00:07:38;7.40;99.90
7686;DHT22;3885;51.474;-2.576;2022-11-20T00:10:05;7.40;99.90
7686;DHT22;3885;51.474;-2.576;2022-11-20T00:12:32;7.50;99.90
7686;DHT22;3885;51.474;-2.576;2022-11-20T00:14:59;7.60;99.90
7686;DHT22;3885;51.474;-2.576;2022-11-20T00:19:55;7.60;99.90
7686;DHT22;3885;51.474;-2.576;2022-11-20T00:22:22;7.50;99.90
7686;DHT22;3885;51.474;-2.576;2022-11-20T00:24:49;7.50;99.90
7686;DHT22;3885;51.474;-2.576;2022-11-20T00:27:16;7.50;99.90
7686;DHT22;3885;51.474;-2.576;2022-11-20T00:34:38;7.50;99.90
7686;DHT22;3885;51.474;-2.576;2022-11-20T00:37:05;7.50;99.90
7686;DHT22;3885;51.474;-2.576;2022-11-20T00:39:32;7.50;99.90
7686;DHT22;3885;51.474;-2.576;2022-11-20T00:44:26;7.60;99.90
7686;DHT22;3885;51.474;-2.576;2022-11-20T00:46:53;7.60;99.90
7686;DHT22;3885;51.474;-2.576;2022-11-20T00:49:20;7.50;99.90
7686;DHT22;3885;51.474;-2.576;2022-11-20T00:54:15;7.50;99.90
7686;DHT22;3885;51.474;-2.576;2022-11-20T00:56:42;7.50;99.90
7686;DHT22;3885;51.474;-2.576;2022-11-20T01:01:37;7.50;99.90
7686;DHT22;3885;51.474;-2.576;2022-11-20T01:04:04;7.50;99.90
7686;DHT22;3885;51.474;-2.576;2022-11-20T01:06:32;7.50;99.90
7686;DHT22;3885;51.474;-2.576;2022-11-20T01:09:04;7.50;99.90
7686;DHT22;3885;51.474;-2.576;2022-11-20T01:11:33;7.50;99.90
7686;DHT22;3885;51.474;-2.576;2022-11-20T01:16:30;7.50;99.90
7686;DHT22;3885;51.474;-2.576;2022-11-20T01:18:59;7.50;99.90
7686;DHT22;3885;51.474;-2.576;2022-11-20T01:21:28;7.50;99.90
7686;DHT22;3885;51.474;-2.576;2022-11-20T01:23:55;7.50;99.90
7686;DHT22;3885;51.474;-2.576;2022-11-20T01:26:26;7.50;99.90
7686;DHT22;3885;51.474;-2.576;2022-11-20T01:31:22;7.40;99.90
7686;DHT22;3885;51.474;-2.576;2022-11-20T01:33:50;7.40;99.90
7686;DHT22;3885;51.474;-2.576;2022-11-20T01:36:19;7.40;99.90
7686;DHT22;3885;51.474;-2.576;2022-11-20T01:38:46;7.40;99.90
7686;DHT22;3885;51.474;-2.576;2022-11-20T01:41:15;7.40;99.90
7686;DHT22;3885;51.474;-2.576;2022-11-20T01:44:04;7.40;99.90
7686;DHT22;3885;51.474;-2.576;2022-11-20T01:46:31;7.40;99.90
7686;DHT22;3885;51.474;-2.576;2022-11-20T01:51:34;7.40;99.90
7686;DHT22;3885;51.474;-2.576;2022-11-20T01:54:05;7.40;99.90
7686;DHT22;3885;51.474;-2.576;2022-11-20T01:56:37;7.40;99.90
7686;DHT22;3885;51.474;-2.576;2022-11-20T01:59:07;7.50;99.90
7686;DHT22;3885;51.474;-2.576;2022-11-20T02:01:36;7.50;99.90
7686;DHT22;3885;51.474;-2.576;2022-11-20T02:04:04;7.50;99.90
7686;DHT22;3885;51.474;-2.576;2022-11-20T02:06:35;7.60;99.90
7686;DHT22;3885;51.474;-2.576;2022-11-20T02:09:05;7.60;99.90
7686;DHT22;3885;51.474;-2.576;2022-11-20T02:11:32;7.60;99.90
7686;DHT22;3885;51.474;-2.576;2022-11-20T02:16:30;7.70;99.90
7686;DHT22;3885;51.474;-2.576;2022-11-20T02:19:00;7.70;99.90
7686;DHT22;3885;51.474;-2.576;2022-11-20T02:21:35;7.60;99.90
7686;DHT22;3885;51.474;-2.576;2022-11-20T02:24:12;7.60;99.90
7686;DHT22;3885;51.474;-2.576;2022-11-20T02:31:38;7.70;99.90
7686;DHT22;3885;51.474;-2.576;2022-11-20T02:34:06;7.70;99.90
7686;DHT22;3885;51.474;-2.576;2022-11-20T02:36:35;7.80;99.90
7686;DHT22;3885;51.474;-2.576;2022-11-20T02:39:03;7.80;99.90
7686;DHT22;3885;51.474;-2.576;2022-11-20T02:41:33;7.90;99.90
7686;DHT22;3885;51.474;-2.576;2022-11-20T02:46:29;7.90;99.90
7686;DHT22;3885;51.474;-2.576;2022-11-20T02:48:56;7.90;99.90
7686;DHT22;3885;51.474;-2.576;2022-11-20T02:51:23;7.90;99.90
7686;DHT22;3885;51.474;-2.576;2022-11-20T02:53:50;8.00;99.90
7686;DHT22;3885;51.474;-2.576;2022-11-20T02:56:17;8.00;99.90
7686;DHT22;3885;51.474;-2.576;2022-11-20T02:58:46;8.00;99.90
7686;DHT22;3885;51.474;-2.576;2022-11-20T03:01:13;8.00;99.90
7686;DHT22;3885;51.474;-2.576;2022-11-20T03:06:07;8.10;99.90
7686;DHT22;3885;51.474;-2.576;2022-11-20T03:08:34;8.10;99.90
7686;DHT22;3885;51.474;-2.576;2022-11-20T03:11:06;8.10;99.90
7686;DHT22;3885;51.474;-2.576;2022-11-20T03:18:38;8.30;99.90
7686;DHT22;3885;51.474;-2.576;2022-11-20T03:21:05;8.30;99.90
7686;DHT22;3885;51.474;-2.576;2022-11-20T03:23:33;8.20;99.90
7686;DHT22;3885;51.474;-2.576;2022-11-20T03:28:37;8.20;99.90
7686;DHT22;3885;51.474;-2.576;2022-11-20T03:31:06;8.10;99.90
7686;DHT22;3885;51.474;-2.576;2022-11-20T03:33:35;8.20;99.90
7686;DHT22;3885;51.474;-2.576;2022-11-20T03:36:03;8.20;99.90
7686;DHT22;3885;51.474;-2.576;2022-11-20T03:38:30;8.20;99.90
7686;DHT22;3885;51.474;-2.576;2022-11-20T03:43:28;8.10;99.90
7686;DHT22;3885;51.474;-2.576;2022-11-20T03:45:55;8.00;99.90
7686;DHT22;3885;51.474;-2.576;2022-11-20T03:48:23;8.00;99.90
7686;DHT22;3885;51.474;-2.576;2022-11-20T03:50:51;7.90;99.90
7686;DHT22;3885;51.474;-2.576;2022-11-20T03:53:18;7.90;99.90
7686;DHT22;3885;51.474;-2.576;2022-11-20T03:55:50;7.80;99.90
7686;DHT22;3885;51.474;-2.576;2022-11-20T03:58:17;7.80;99.90
7686;DHT22;3885;51.474;-2.576;2022-11-20T04:00:44;7.80;99.90
7686;DHT22;3885;51.474;-2.576;2022-11-20T04:05:38;7.70;99.90
7686;DHT22;3885;51.474;-2.576;2022-11-20T04:08:06;7.70;99.90
7686;DHT22;3885;51.474;-2.576;2022-11-20T04:10:33;7.80;99.90
7686;DHT22;3885;51.474;-2.576;2022-11-20T04:17:55;7.70;99.90
7686;DHT22;3885;51.474;-2.576;2022-11-20T04:20:22;7.70;99.90
7686;DHT22;3885;51.474;-2.576;2022-11-20T04:22:49;7.70;99.90
7686;DHT22;3885;51.474;-2.576;2022-11-20T04:25:18;7.60;99.90
7686;DHT22;3885;51.474;-2.576;2022-11-20T04:27:45;7.60;99.90
7686;DHT22;3885;51.474;-2.576;2022-11-20T04:30:12;7.60;99.90
7686;DHT22;3885;51.474;-2.576;2022-11-20T04:32:39;7.50;99.90
7686;DHT22;3885;51.474;-2.576;2022-11-20T04:35:07;7.50;99.90
7686;DHT22;3885;51.474;-2.576;2022-11-20T04:37:34;7.40;99.90
7686;DHT22;3885;51.474;-2.576;2022-11-20T04:40:00;7.30;99.90
7686;DHT22;3885;51.474;-2.576;2022-11-20T04:42:29;7.20;99.90
7686;DHT22;3885;51.474;-2.576;2022-11-20T04:44:56;7.10;99.90
7686;DHT22;3885;51.474;-2.576;2022-11-20T04:47:23;7.10;99.90
7686;DHT22;3885;51.474;-2.576;2022-11-20T04:49:50;7.00;99.90
7686;DHT22;3885;51.474;-2.576;2022-11-20T04:52:17;7.00;99.90
7686;DHT22;3885;51.474;-2.576;2022-11-20T04:54:44;6.90;99.90
7686;DHT22;3885;51.474;-2.576;2022-11-20T04:57:13;6.90;99.90
7686;DHT22;3885;51.474;-2.576;2022-11-20T04:59:42;6.80;99.90
7686;DHT22;3885;51.474;-2.576;2022-11-20T05:02:10;6.70;99.90
7686;DHT22;3885;51.474;-2.576;2022-11-20T05:04:37;6.70;99.90
7686;DHT22;3885;51.474;-2.576;2022-11-20T05:07:04;6.70;99.90
7686;DHT22;3885;51.474;-2.576;2022-11-20T05:09:30;6.60;99.90
7686;DHT22;3885;51.474;-2.576;2022-11-20T05:11:58;6.60;99.90
7686;DHT22;3885;51.474;-2.576;2022-11-20T05:14:24;6.50;99.90
7686;DHT22;3885;51.474;-2.576;2022-11-20T05:16:53;6.50;99.90
7686;DHT22;3885;51.474;-2.576;2022-11-20T05:21:47;6.30;99.90
7686;DHT22;3885;51.474;-2.576;2022-11-20T05:24:14;6.20;99.90
7686;DHT22;3885;51.474;-2.576;2022-11-20T05:26:41;6.10;99.90
7686;DHT22;3885;51.474;-2.576;2022-11-20T05:29:10;6.10;99.90
7686;DHT22;3885;51.474;-2.576;2022-11-20T05:31:39;6.00;99.90
7686;DHT22;3885;51.474;-2.576;2022-11-20T05:34:07;6.00;99.90
7686;DHT22;3885;51.474;-2.576;2022-11-20T05:41:29;5.70;99.90
7686;DHT22;3885;51.474;-2.576;2022-11-20T05:43:56;5.70;99.90
7686;DHT22;3885;51.474;-2.576;2022-11-20T05:46:24;5.70;99.90
7686;DHT22;3885;51.474;-2.576;2022-11-20T05:48:51;5.70;99.90
7686;DHT22;3885;51.474;-2.576;2022-11-20T05:53:47;5.50;99.90
7686;DHT22;3885;51.474;-2.576;2022-11-20T05:56:15;5.50;99.90
7686;DHT22;3885;51.474;-2.576;2022-11-20T05:58:43;5.50;99.90
7686;DHT22;3885;51.474;-2.576;2022-11-20T06:01:12;5.50;99.90
7686;DHT22;3885;51.474;-2.576;2022-11-20T06:03:40;5.50;99.90
7686;DHT22;3885;51.474;-2.576;2022-11-20T06:08:36;5.30;99.90
7686;DHT22;3885;51.474;-2.576;2022-11-20T06:11:04;5.30;99.90
7686;DHT22;3885;51.474;-2.576;2022-11-20T06:13:31;5.30;99.90
7686;DHT22;3885;51.474;-2.576;2022-11-20T06:21:02;5.30;99.90
7686;DHT22;3885;51.474;-2.576;2022-11-20T06:23:30;5.30;99.90
7686;DHT22;3885;51.474;-2.576;2022-11-20T06:26:01;5.30;99.90
7686;DHT22;3885;51.474;-2.576;2022-11-20T06:28:28;5.30;99.90
7686;DHT22;3885;51.474;-2.576;2022-11-20T06:30:55;5.40;99.90
7686;DHT22;3885;51.474;-2.576;2022-11-20T06:33:22;5.40;99.90
7686;DHT22;3885;51.474;-2.576;2022-11-20T06:35:49;5.40;99.90
7686;DHT22;3885;51.474;-2.576;2022-11-20T06:38:16;5.40;99.90
7686;DHT22;3885;51.474;-2.576;2022-11-20T06:40:43;5.40;99.90
7686;DHT22;3885;51.474;-2.576;2022-11-20T06:43:11;5.40;99.90
7686;DHT22;3885;51.474;-2.576;2022-11-20T06:45:38;5.30;99.90
7686;DHT22;3885;51.474;-2.576;2022-11-20T06:48:05;5.30;99.90
7686;DHT22;3885;51.474;-2.576;2022-11-20T06:53:01;5.30;99.90
7686;DHT22;3885;51.474;-2.576;2022-11-20T06:55:29;5.30;99.90
7686;DHT22;3885;51.474;-2.576;2022-11-20T06:57:56;5.30;99.90
7686;DHT22;3885;51.474;-2.576;2022-11-20T07:00:24;5.20;99.90
7686;DHT22;3885;51.474;-2.576;2022-11-20T07:02:51;5.20;99.90
7686;DHT22;3885;51.474;-2.576;2022-11-20T07:05:18;5.20;99.90
7686;DHT22;3885;51.474;-2.576;2022-11-20T07:07:45;5.10;99.90
7686;DHT22;3885;51.474;-2.576;2022-11-20T07:10:12;5.10;99.90
7686;DHT22;3885;51.474;-2.576;2022-11-20T07:12:39;5.00;99.90
7686;DHT22;3885;51.474;-2.576;2022-11-20T07:15:07;5.00;99.90
7686;DHT22;3885;51.474;-2.576;2022-11-20T07:17:35;5.00;99.90
7686;DHT22;3885;51.474;-2.576;2022-11-20T07:20:02;5.00;99.90
7686;DHT22;3885;51.474;-2.576;2022-11-20T07:22:29;4.90;99.90
7686;DHT22;3885;51.474;-2.576;2022-11-20T07:24:56;4.90;99.90
7686;DHT22;3885;51.474;-2.576;2022-11-20T07:27:23;4.90;99.90
7686;DHT22;3885;51.474;-2.576;2022-11-20T07:34:45;4.80;99.90
7686;DHT22;3885;51.474;-2.576;2022-11-20T07:37:13;4.80;99.90
7686;DHT22;3885;51.474;-2.576;2022-11-20T07:39:40;4.80;99.90
7686;DHT22;3885;51.474;-2.576;2022-11-20T07:42:07;4.80;99.90
7686;DHT22;3885;51.474;-2.576;2022-11-20T07:44:34;4.80;99.90
7686;DHT22;3885;51.474;-2.576;2022-11-20T07:47:01;4.80;99.90
7686;DHT22;3885;51.474;-2.576;2022-11-20T07:49:28;4.70;99.90
7686;DHT22;3885;51.474;-2.576;2022-11-20T07:51:56;4.70;99.90
7686;DHT22;3885;51.474;-2.576;2022-11-20T07:54:23;4.70;99.90
7686;DHT22;3885;51.474;-2.576;2022-11-20T08:01:44;4.70;99.90
7686;DHT22;3885;51.474;-2.576;2022-11-20T08:04:12;4.70;99.90
7686;DHT22;3885;51.474;-2.576;2022-11-20T08:09:09;4.70;99.90
7686;DHT22;3885;51.474;-2.576;2022-11-20T08:11:36;4.60;99.90
7686;DHT22;3885;51.474;-2.576;2022-11-20T08:14:20;4.60;99.90
7686;DHT22;3885;51.474;-2.576;2022-11-20T08:16:48;4.60;99.90
7686;DHT22;3885;51.474;-2.576;2022-11-20T08:19:17;4.50;99.90
7686;DHT22;3885;51.474;-2.576;2022-11-20T08:21:44;4.40;99.90
7686;DHT22;3885;51.474;-2.576;2022-11-20T08:24:13;4.40;99.90
7686;DHT22;3885;51.474;-2.576;2022-11-20T08:26:40;4.40;99.90
7686;DHT22;3885;51.474;-2.576;2022-11-20T08:29:07;4.40;99.90
7686;DHT22;3885;51.474;-2.576;2022-11-20T08:31:34;4.50;99.90
7686;DHT22;3885;51.474;-2.576;2022-11-20T08:34:01;4.40;99.90
7686;DHT22;3885;51.474;-2.576;2022-11-20T08:36:28;4.40;99.90
7686;DHT22;3885;51.474;-2.576;2022-11-20T08:38:55;4.40;99.90
7686;DHT22;3885;51.474;-2.576;2022-11-20T08:41:24;4.40;99.90
7686;DHT22;3885;51.474;-2.576;2022-11-20T08:43:52;4.40;99.90
7686;DHT22;3885;51.474;-2.576;2022-11-20T08:46:19;4.40;99.90
7686;DHT22;3885;51.474;-2.576;2022-11-20T08:48:46;4.40;99.90
7686;DHT22;3885;51.474;-2.576;2022-11-20T08:51:13;4.40;99.90
7686;DHT22;3885;51.474;-2.576;2022-11-20T08:53:41;4.40;99.90
7686;DHT22;3885;51.474;-2.576;2022-11-20T08:56:08;4.40;99.90
7686;DHT22;3885;51.474;-2.576;2022-11-20T08:58:36;4.40;99.90
7686;DHT22;3885;51.474;-2.576;2022-11-20T09:01:03;4.50;99.90
7686;DHT22;3885;51.474;-2.576;2022-11-20T09:03:31;4.50;99.90
7686;DHT22;3885;51.474;-2.576;2022-11-20T09:05:58;4.60;99.90
7686;DHT22;3885;51.474;-2.576;2022-11-20T09:15:53;4.90;99.90
7686;DHT22;3885;51.474;-2.576;2022-11-20T09:20:49;5.10;99.90
7686;DHT22;3885;51.474;-2.576;2022-11-20T09:23:17;5.20;99.90
7686;DHT22;3885;51.474;-2.576;2022-11-20T09:28:11;5.40;99.90
7686;DHT22;3885;51.474;-2.576;2022-11-20T09:30:38;5.50;99.90
7686;DHT22;3885;51.474;-2.576;2022-11-20T09:33:06;5.60;99.90
7686;DHT22;3885;51.474;-2.576;2022-11-20T09:35:33;5.80;99.90
7686;DHT22;3885;51.474;-2.576;2022-11-20T09:38:05;5.90;99.90
7686;DHT22;3885;51.474;-2.576;2022-11-20T09:43:03;6.10;99.90
7686;DHT22;3885;51.474;-2.576;2022-11-20T09:45:39;6.30;99.90
7686;DHT22;3885;51.474;-2.576;2022-11-20T09:48:30;6.40;99.90
7686;DHT22;3885;51.474;-2.576;2022-11-20T09:51:06;6.70;99.90
7686;DHT22;3885;51.474;-2.576;2022-11-20T09:56:11;7.10;99.90
7686;DHT22;3885;51.474;-2.576;2022-11-20T09:58:40;7.30;99.90
7686;DHT22;3885;51.474;-2.576;2022-11-20T10:01:12;7.40;99.90
7686;DHT22;3885;51.474;-2.576;2022-11-20T10:03:45;7.60;99.90
7686;DHT22;3885;51.474;-2.576;2022-11-20T10:08:47;7.80;99.90
7686;DHT22;3885;51.474;-2.576;2022-11-20T10:11:24;7.90;99.90
7686;DHT22;3885;51.474;-2.576;2022-11-20T10:14:02;8.10;99.90
7686;DHT22;3885;51.474;-2.576;2022-11-20T10:16:38;8.20;99.90
7686;DHT22;3885;51.474;-2.576;2022-11-20T10:19:23;8.40;99.90
7686;DHT22;3885;51.474;-2.576;2022-11-20T10:22:06;8.40;99.90
7686;DHT22;3885;51.474;-2.576;2022-11-20T10:24:55;8.60;99.90
7686;DHT22;3885;51.474;-2.576;2022-11-20T10:27:53;8.70;99.90
7686;DHT22;3885;51.474;-2.576;2022-11-20T10:30:22;8.70;99.90
7686;DHT22;3885;51.474;-2.576;2022-11-20T10:32:52;8.80;99.90
7686;DHT22;3885;51.474;-2.576;2022-11-20T10:35:24;8.80;99.90
7686;DHT22;3885;51.474;-2.576;2022-11-20T10:37:56;8.90;99.90
7686;DHT22;3885;51.474;-2.576;2022-11-20T10:40:31;9.00;99.90
7686;DHT22;3885;51.474;-2.576;2022-11-20T10:43:02;9.00;99.90
7686;DHT22;3885;51.474;-2.576;2022-11-20T10:45:44;9.00;99.90
7686;DHT22;3885;51.474;-2.576;2022-11-20T10:48:21;9.20;99.90
7686;DHT22;3885;51.474;-2.576;2022-11-20T10:56:25;9.50;99.90
7686;DHT22;3885;51.474;-2.576;2022-11-20T10:59:08;9.60;99.90
7686;DHT22;3885;51.474;-2.576;2022-11-20T11:01:40;9.70;99.90
7686;DHT22;3885;51.474;-2.576;2022-11-20T11:04:25;9.80;99.90
7686;DHT22;3885;51.474;-2.576;2022-11-20T11:06:58;9.90;99.90
7686;DHT22;3885;51.474;-2.576;2022-11-20T11:09:32;10.00;99.90
7686;DHT22;3885;51.474;-2.576;2022-11-20T11:12:00;10.10;99.90
7686;DHT22;3885;51.474;-2.576;2022-11-20T11:14:27;10.10;99.90
7686;DHT22;3885;51.474;-2.576;2022-11-20T11:21:52;10.30;99.90
7686;DHT22;3885;51.474;-2.576;2022-11-20T11:24:23;10.40;99.90
7686;DHT22;3885;51.474;-2.576;2022-11-20T11:32:03;10.70;99.90
7686;DHT22;3885;51.474;-2.576;2022-11-20T11:36:59;10.90;99.90
7686;DHT22;3885;51.474;-2.576;2022-11-20T11:39:29;11.00;99.90
7686;DHT22;3885;51.474;-2.576;2022-11-20T11:41:57;11.10;99.90
7686;DHT22;3885;51.474;-2.576;2022-11-20T11:47:21;11.40;99.90
7686;DHT22;3885;51.474;-2.576;2022-11-20T11:52:17;11.70;99.90
7686;DHT22;3885;51.474;-2.576;2022-11-20T11:54:50;11.70;99.90
7686;DHT22;3885;51.474;-2.576;2022-11-20T11:57:23;11.70;99.90
7686;DHT22;3885;51.474;-2.576;2022-11-20T12:02:34;11.60;99.90
7686;DHT22;3885;51.474;-2.576;2022-11-20T12:05:09;11.50;99.90
7686;DHT22;3885;51.474;-2.576;2022-11-20T12:07:41;11.50;99.90
7686;DHT22;3885;51.474;-2.576;2022-11-20T12:10:16;11.50;99.90
7686;DHT22;3885;51.474;-2.576;2022-11-20T12:12:46;11.30;99.90
7686;DHT22;3885;51.474;-2.576;2022-11-20T12:15:26;11.00;99.90
7686;DHT22;3885;51.474;-2.576;2022-11-20T12:17:53;10.80;99.90
7686;DHT22;3885;51.474;-2.576;2022-11-20T12:20:22;10.60;99.90
7686;DHT22;3885;51.474;-2.576;2022-11-20T12:22:56;10.50;99.90
7686;DHT22;3885;51.474;-2.576;2022-11-20T12:25:30;10.40;99.90
7686;DHT22;3885;51.474;-2.576;2022-11-20T12:28:26;10.30;99.90
7686;DHT22;3885;51.474;-2.576;2022-11-20T12:31:08;10.20;99.90
7686;DHT22;3885;51.474;-2.576;2022-11-20T12:36:21;10.30;99.90
7686;DHT22;3885;51.474;-2.576;2022-11-20T12:41:49;10.20;99.90
7686;DHT22;3885;51.474;-2.576;2022-11-20T12:48:00;10.70;99.90
7686;DHT22;3885;51.474;-2.576;2022-11-20T12:50:39;10.60;99.90
7686;DHT22;3885;51.474;-2.576;2022-11-20T12:53:17;10.70;99.90
7686;DHT22;3885;51.474;-2.576;2022-11-20T12:55:51;10.70;99.90
7686;DHT22;3885;51.474;-2.576;2022-11-20T12:58:27;10.70;99.90
7686;DHT22;3885;51.474;-2.576;2022-11-20T13:03:41;10.70;99.90
7686;DHT22;3885;51.474;-2.576;2022-11-20T13:06:15;10.60;99.90
7686;DHT22;3885;51.474;-2.576;2022-11-20T13:11:17;10.50;99.90
7686;DHT22;3885;51.474;-2.576;2022-11-20T13:14:02;10.60;99.90
7686;DHT22;3885;51.474;-2.576;2022-11-20T13:19:02;10.60;99.90
7686;DHT22;3885;51.474;-2.576;2022-11-20T13:21:37;10.60;99.90
7686;DHT22;3885;51.474;-2.576;2022-11-20T13:24:04;10.60;99.90
7686;DHT22;3885;51.474;-2.576;2022-11-20T13:26:32;10.60;99.90
7686;DHT22;3885;51.474;-2.576;2022-11-20T13:29:09;10.70;99.90
7686;DHT22;3885;51.474;-2.576;2022-11-20T13:31:40;10.70;99.90
7686;DHT22;3885;51.474;-2.576;2022-11-20T13:39:24;10.60;99.90
7686;DHT22;3885;51.474;-2.576;2022-11-20T13:41:54;10.50;99.90
7686;DHT22;3885;51.474;-2.576;2022-11-20T13:44:27;10.40;99.90
7686;DHT22;3885;51.474;-2.576;2022-11-20T13:46:55;10.40;99.90
7686;DHT22;3885;51.474;-2.576;2022-11-20T13:49:26;10.30;99.90
7686;DHT22;3885;51.474;-2.576;2022-11-20T13:52:01;10.20;99.90
7686;DHT22;3885;51.474;-2.576;2022-11-20T13:57:44;10.00;99.90
7686;DHT22;3885;51.474;-2.576;2022-11-20T14:00:16;10.00;99.90
7686;DHT22;3885;51.474;-2.576;2022-11-20T14:02:44;9.90;99.90
7686;DHT22;3885;51.474;-2.576;2022-11-20T14:05:19;9.90;99.90
7686;DHT22;3885;51.474;-2.576;2022-11-20T14:07:48;9.90;99.90
7686;DHT22;3885;51.474;-2.576;2022-11-20T14:10:24;10.00;99.90
7686;DHT22;3885;51.474;-2.576;2022-11-20T14:17:54;10.10;99.90
7686;DHT22;3885;51.474;-2.576;2022-11-20T14:20:24;10.10;99.90
7686;DHT22;3885;51.474;-2.576;2022-11-20T14:25:21;10.10;99.90
7686;DHT22;3885;51.474;-2.576;2022-11-20T14:27:52;10.00;99.90
7686;DHT22;3885;51.474;-2.576;2022-11-20T14:30:21;10.10;99.90
7686;DHT22;3885;51.474;-2.576;2022-11-20T14:37:48;10.10;99.90
7686;DHT22;3885;51.474;-2.576;2022-11-20T14:40:29;10.10;99.90
7686;DHT22;3885;51.474;-2.576;2022-11-20T14:42:57;10.10;99.90
7686;DHT22;3885;51.474;-2.576;2022-11-20T14:45:24;10.00;99.90
7686;DHT22;3885;51.474;-2.576;2022-11-20T14:47:55;10.00;99.90
7686;DHT22;3885;51.474;-2.576;2022-11-20T14:50:24;10.00;99.90
7686;DHT22;3885;51.474;-2.576;2022-11-20T14:52:53;10.10;99.90
7686;DHT22;3885;51.474;-2.576;2022-11-20T14:55:31;10.10;99.90
7686;DHT22;3885;51.474;-2.576;2022-11-20T14:58:00;10.10;99.90
7686;DHT22;3885;51.474;-2.576;2022-11-20T15:00:28;10.10;99.90
7686;DHT22;3885;51.474;-2.576;2022-11-20T15:02:57;10.10;99.90
7686;DHT22;3885;51.474;-2.576;2022-11-20T15:05:26;10.10;99.90
7686;DHT22;3885;51.474;-2.576;2022-11-20T15:08:16;10.10;99.90
7686;DHT22;3885;51.474;-2.576;2022-11-20T15:10:47;10.10;99.90
7686;DHT22;3885;51.474;-2.576;2022-11-20T15:18:16;9.90;99.90
7686;DHT22;3885;51.474;-2.576;2022-11-20T15:20:44;9.90;99.90
7686;DHT22;3885;51.474;-2.576;2022-11-20T15:23:13;9.80;99.90
7686;DHT22;3885;51.474;-2.576;2022-11-20T15:25:41;9.90;99.90
7686;DHT22;3885;51.474;-2.576;2022-11-20T15:28:15;9.90;99.90
7686;DHT22;3885;51.474;-2.576;2022-11-20T15:30:44;9.90;99.90
7686;DHT22;3885;51.474;-2.576;2022-11-20T15:33:11;9.90;99.90
7686;DHT22;3885;51.474;-2.576;2022-11-20T15:35:40;9.80;99.90
7686;DHT22;3885;51.474;-2.576;2022-11-20T15:38:07;9.80;99.90
7686;DHT22;3885;51.474;-2.576;2022-11-20T15:40:34;9.70;99.90
7686;DHT22;3885;51.474;-2.576;2022-11-20T15:43:01;9.70;99.90
7686;DHT22;3885;51.474;-2.576;2022-11-20T15:48:01;9.80;99.90
7686;DHT22;3885;51.474;-2.576;2022-11-20T15:53:02;9.70;99.90
7686;DHT22;3885;51.474;-2.576;2022-11-20T16:00:23;9.60;99.90
7686;DHT22;3885;51.474;-2.576;2022-11-20T16:02:50;9.60;99.90
7686;DHT22;3885;51.474;-2.576;2022-11-20T16:05:17;9.40;99.90
7686;DHT22;3885;51.474;-2.576;2022-11-20T16:07:44;9.40;99.90
7686;DHT22;3885;51.474;-2.576;2022-11-20T16:10:12;9.40;99.90
7686;DHT22;3885;51.474;-2.576;2022-11-20T16:12:39;9.30;99.90
7686;DHT22;3885;51.474;-2.576;2022-11-20T16:15:23;9.20;99.90
7686;DHT22;3885;51.474;-2.576;2022-11-20T16:25:31;9.00;99.90
7686;DHT22;3885;51.474;-2.576;2022-11-20T16:27:58;9.00;99.90
7686;DHT22;3885;51.474;-2.576;2022-11-20T16:30:26;9.00;99.90
7686;DHT22;3885;51.474;-2.576;2022-11-20T16:32:53;9.00;99.90
7686;DHT22;3885;51.474;-2.576;2022-11-20T16:35:20;8.90;99.90
7686;DHT22;3885;51.474;-2.576;2022-11-20T16:37:47;8.90;99.90
7686;DHT22;3885;51.474;-2.576;2022-11-20T16:40:14;8.90;99.90
7686;DHT22;3885;51.474;-2.576;2022-11-20T16:45:10;8.80;99.90
7686;DHT22;3885;51.474;-2.576;2022-11-20T16:47:37;8.70;99.90
7686;DHT22;3885;51.474;-2.576;2022-11-20T16:50:05;8.70;99.90
7686;DHT22;3885;51.474;-2.576;2022-11-20T16:55:00;8.60;99.90
7686;DHT22;3885;51.474;-2.576;2022-11-20T16:59:55;8.50;99.90
7686;DHT22;3885;51.474;-2.576;2022-11-20T17:02:22;8.40;99.90
7686;DHT22;3885;51.474;-2.576;2022-11-20T17:04:50;8.40;99.90
7686;DHT22;3885;51.474;-2.576;2022-11-20T17:09:45;8.20;99.90
7686;DHT22;3885;51.474;-2.576;2022-11-20T17:12:12;8.10;99.90
7686;DHT22;3885;51.474;-2.576;2022-11-20T17:14:38;8.10;99.90
7686;DHT22;3885;51.474;-2.576;2022-11-20T17:17:07;8.10;99.90
7686;DHT22;3885;51.474;-2.576;2022-11-20T17:29:22;8.00;99.90
7686;DHT22;3885;51.474;-2.576;2022-11-20T17:31:49;8.00;99.90
7686;DHT22;3885;51.474;-2.576;2022-11-20T17:36:45;7.90;99.90
7686;DHT22;3885;51.474;-2.576;2022-11-20T17:39:12;7.90;99.90
7686;DHT22;3885;51.474;-2.576;2022-11-20T17:46:36;8.00;99.90
7686;DHT22;3885;51.474;-2.576;2022-11-20T17:51:33;8.10;99.90
7686;DHT22;3885;51.474;-2.576;2022-11-20T17:54:02;8.10;99.90
7686;DHT22;3885;51.474;-2.576;2022-11-20T17:56:30;8.00;99.90
7686;DHT22;3885;51.474;-2.576;2022-11-20T17:59:15;8.00;99.90
7686;DHT22;3885;51.474;-2.576;2022-11-20T18:06:39;7.90;99.90
7686;DHT22;3885;51.474;-2.576;2022-11-20T18:09:06;7.90;99.90
7686;DHT22;3885;51.474;-2.576;2022-11-20T18:11:34;7.90;99.90
7686;DHT22;3885;51.474;-2.576;2022-11-20T18:14:03;7.90;99.90
7686;DHT22;3885;51.474;-2.576;2022-11-20T18:16:49;7.90;99.90
7686;DHT22;3885;51.474;-2.576;2022-11-20T18:19:18;7.90;99.90
7686;DHT22;3885;51.474;-2.576;2022-11-20T18:21:47;7.90;99.90
7686;DHT22;3885;51.474;-2.576;2022-11-20T18:24:14;7.90;99.90
7686;DHT22;3885;51.474;-2.576;2022-11-20T18:26:41;7.80;99.90
7686;DHT22;3885;51.474;-2.576;2022-11-20T18:29:08;7.80;99.90
7686;DHT22;3885;51.474;-2.576;2022-11-20T18:34:03;7.90;99.90
7686;DHT22;3885;51.474;-2.576;2022-11-20T18:36:31;7.90;99.90
7686;DHT22;3885;51.474;-2.576;2022-11-20T18:39:00;7.90;99.90
7686;DHT22;3885;51.474;-2.576;2022-11-20T18:44:15;7.80;99.90
7686;DHT22;3885;51.474;-2.576;2022-11-20T18:47:00;7.90;99.90
7686;DHT22;3885;51.474;-2.576;2022-11-20T18:49:27;7.90;99.90
7686;DHT22;3885;51.474;-2.576;2022-11-20T18:51:54;8.00;99.90
7686;DHT22;3885;51.474;-2.576;2022-11-20T18:54:22;8.00;99.90
7686;DHT22;3885;51.474;-2.576;2022-11-20T18:56:49;8.00;99.90
7686;DHT22;3885;51.474;-2.576;2022-11-20T18:59:17;8.00;99.90
7686;DHT22;3885;51.474;-2.576;2022-11-20T19:04:14;8.00;99.90
7686;DHT22;3885;51.474;-2.576;2022-11-20T19:06:42;8.00;99.90
7686;DHT22;3885;51.474;-2.576;2022-11-20T19:11:40;8.00;99.90
7686;DHT22;3885;51.474;-2.576;2022-11-20T19:14:07;8.00;99.90
7686;DHT22;3885;51.474;-2.576;2022-11-20T19:19:02;7.90;99.90
7686;DHT22;3885;51.474;-2.576;2022-11-20T19:21:30;7.90;99.90
7686;DHT22;3885;51.474;-2.576;2022-11-20T19:23:58;7.80;99.90
7686;DHT22;3885;51.474;-2.576;2022-11-20T19:26:26;7.70;99.90
7686;DHT22;3885;51.474;-2.576;2022-11-20T19:28:54;7.60;99.90
7686;DHT22;3885;51.474;-2.576;2022-11-20T19:31:22;7.50;99.90
7686;DHT22;3885;51.474;-2.576;2022-11-20T19:36:21;7.30;99.90
7686;DHT22;3885;51.474;-2.576;2022-11-20T19:38:50;7.20;99.90
7686;DHT22;3885;51.474;-2.576;2022-11-20T19:41:18;7.20;99.90
7686;DHT22;3885;51.474;-2.576;2022-11-20T19:43:46;7.10;99.90
7686;DHT22;3885;51.474;-2.576;2022-11-20T19:48:45;6.90;99.90
7686;DHT22;3885;51.474;-2.576;2022-11-20T19:53:41;6.70;99.90
7686;DHT22;3885;51.474;-2.576;2022-11-20T19:56:09;6.70;99.90
7686;DHT22;3885;51.474;-2.576;2022-11-20T19:58:36;6.60;99.90
7686;DHT22;3885;51.474;-2.576;2022-11-20T20:01:07;6.40;99.90
7686;DHT22;3885;51.474;-2.576;2022-11-20T20:03:36;6.40;99.90
7686;DHT22;3885;51.474;-2.576;2022-11-20T20:06:05;6.80;99.90
7686;DHT22;3885;51.474;-2.576;2022-11-20T20:08:32;6.70;99.90
7686;DHT22;3885;51.474;-2.576;2022-11-20T20:10:59;6.40;99.90
7686;DHT22;3885;51.474;-2.576;2022-11-20T20:13:35;6.30;99.90
7686;DHT22;3885;51.474;-2.576;2022-11-20T20:21:03;6.00;99.90
7686;DHT22;3885;51.474;-2.576;2022-11-20T20:23:30;5.80;99.90
7686;DHT22;3885;51.474;-2.576;2022-11-20T20:25:57;5.80;99.90